TimeEDT,TemperatureF,Dew PointF,Humidity,Sea Level PressureIn,VisibilityMPH,Wind Direction,Wind SpeedMPH,Gust SpeedMPH,PrecipitationIn,Events,Conditions,WindDirDegrees,DateUTC
12:56 AM,64.0,57.9,80,30.25,10.0,NW,3.5,-,N/A,,Clear,310,2013-08-18 04:56:00
1:56 AM,64.0,57.9,80,30.25,10.0,WNW,4.6,-,N/A,,Clear,300,2013-08-18 05:56:00
2:56 AM,64.0,57.0,78,30.24,10.0,WNW,4.6,-,N/A,,Clear,300,2013-08-18 06:56:00
3:56 AM,64.0,57.0,78,30.24,10.0,WNW,4.6,-,N/A,,Clear,300,2013-08-18 07:56:00
4:56 AM,64.0,57.0,78,30.24,10.0,WNW,4.6,-,N/A,,Clear,300,2013-08-18 08:56:00
5:56 AM,64.9,57.0,75,30.24,10.0,WNW,3.5,-,N/A,,Clear,290,2013-08-18 09:56:00
6:56 AM,62.1,57.9,86,30.26,10.0,Calm,Calm,-,N/A,,Mostly Cloudy,0,2013-08-18 10:56:00
7:56 AM,64.9,57.9,78,30.26,10.0,Calm,Calm,-,N/A,,Mostly Cloudy,0,2013-08-18 11:56:00
8:05 AM,64.4,57.2,77,30.27,10.0,Calm,Calm,-,N/A,,Mostly Cloudy,0,2013-08-18 12:05:00
8:56 AM,66.9,57.9,73,30.25,10.0,Calm,Calm,-,N/A,,Mostly Cloudy,0,2013-08-18 12:56:00
9:56 AM,69.1,59.0,70,30.25,10.0,Variable,5.8,-,N/A,,Mostly Cloudy,0,2013-08-18 13:56:00
10:56 AM,71.1,59.0,66,30.25,10.0,Variable,4.6,-,N/A,,Mostly Cloudy,0,2013-08-18 14:56:00
11:56 AM,73.0,60.1,64,30.24,10.0,Variable,3.5,-,N/A,,Mostly Cloudy,0,2013-08-18 15:56:00
12:56 PM,73.0,60.1,64,30.24,8.0,SE,4.6,-,0.00,Rain,Light Rain,130,2013-08-18 16:56:00
1:56 PM,73.0,59.0,61,30.21,10.0,SE,3.5,-,0.00,Rain,Light Rain,130,2013-08-18 17:56:00
2:56 PM,73.0,59.0,61,30.18,10.0,East,4.6,-,0.00,Rain,Light Rain,90,2013-08-18 18:56:00
3:56 PM,72.0,59.0,64,30.16,10.0,Calm,Calm,-,0.00,Rain,Light Rain,0,2013-08-18 19:56:00
4:56 PM,71.1,59.0,66,30.15,10.0,East,3.5,-,0.00,Rain,Light Rain,90,2013-08-18 20:56:00
5:56 PM,70.0,57.0,63,30.15,10.0,Calm,Calm,-,0.00,,Mostly Cloudy,0,2013-08-18 21:56:00
6:56 PM,68.0,60.1,76,30.14,10.0,Calm,Calm,-,N/A,,Scattered Clouds,0,2013-08-18 22:56:00
7:56 PM,69.1,59.0,70,30.14,10.0,Calm,Calm,-,N/A,,Scattered Clouds,0,2013-08-18 23:56:00
8:56 PM,66.0,59.0,78,30.14,10.0,Calm,Calm,-,0.00,,Mostly Cloudy,0,2013-08-19 00:56:00
9:56 PM,64.0,57.9,80,30.14,10.0,Calm,Calm,-,N/A,,Mostly Cloudy,0,2013-08-19 01:56:00
10:56 PM,64.0,59.0,84,30.14,10.0,Calm,Calm,-,N/A,,Mostly Cloudy,0,2013-08-19 02:56:00
11:56 PM,63.0,60.1,90,30.13,10.0,Calm,Calm,-,N/A,,Partly Cloudy,0,2013-08-19 03:56:00